createdAt,value
2023-04-15T00:01:53.371Z,7.23
2023-04-15T00:04:21.004Z,7.87
2023-04-15T00:06:54.060Z,8.50
2023-04-15T00:09:21.638Z,8.67
2023-04-15T00:11:48.745Z,9.07
2023-04-15T00:14:15.873Z,9.40
2023-04-15T00:16:44.916Z,9.03
2023-04-15T00:19:12.399Z,8.90
2023-04-15T00:21:39.452Z,9.47
2023-04-15T00:24:06.647Z,8.00
2023-04-15T00:26:33.493Z,8.37
2023-04-15T00:29:00.575Z,8.50
2023-04-15T00:31:27.831Z,8.30
2023-04-15T00:33:54.729Z,8.30
2023-04-15T00:36:21.648Z,7.00
2023-04-15T00:38:48.477Z,7.03
2023-04-15T00:41:15.325Z,7.27
2023-04-15T00:43:42.460Z,6.83
2023-04-15T00:46:10.752Z,7.97
2023-04-15T00:48:39.135Z,6.67
2023-04-15T00:51:07.448Z,6.70
2023-04-15T00:53:34.363Z,6.27
2023-04-15T00:56:01.146Z,6.57
2023-04-15T00:58:28.359Z,6.60
2023-04-15T01:00:56.619Z,6.40
2023-04-15T01:03:23.997Z,6.93
2023-04-15T01:05:51.769Z,6.30
2023-04-15T01:08:18.970Z,6.40
2023-04-15T01:10:45.989Z,6.90
2023-04-15T01:13:13.058Z,7.07
2023-04-15T01:15:40.586Z,7.10
2023-04-15T01:18:09.475Z,6.73
2023-04-15T01:20:36.580Z,7.00
2023-04-15T01:23:03.623Z,6.37
2023-04-15T01:25:34.297Z,7.33
2023-04-15T01:28:04.301Z,7.10
2023-04-15T01:30:34.979Z,7.10
2023-04-15T01:33:02.098Z,7.90
2023-04-15T01:35:29.009Z,7.03
2023-04-15T01:38:02.695Z,7.73
2023-04-15T01:40:29.649Z,8.03
2023-04-15T01:42:56.776Z,8.37
2023-04-15T01:45:23.763Z,8.70
2023-04-15T01:47:50.870Z,8.77
2023-04-15T01:50:17.797Z,8.20
2023-04-15T01:52:44.885Z,8.80
2023-04-15T01:55:11.717Z,9.07
2023-04-15T01:57:38.454Z,8.37
2023-04-15T02:00:07.890Z,8.33
2023-04-15T02:02:34.868Z,8.30
2023-04-15T02:05:01.928Z,8.67
2023-04-15T02:07:32.656Z,9.20
2023-04-15T02:09:59.529Z,8.90
2023-04-15T02:12:27.481Z,8.53
2023-04-15T02:14:54.568Z,8.93
2023-04-15T02:17:21.433Z,9.53
2023-04-15T02:19:48.390Z,9.00
2023-04-15T02:22:19.050Z,8.80
2023-04-15T02:24:49.044Z,8.37
2023-04-15T02:27:17.376Z,8.17
2023-04-15T02:29:46.042Z,8.03
2023-04-15T02:32:13.816Z,9.23
2023-04-15T02:34:42.817Z,8.73
2023-04-15T02:37:11.602Z,8.47
2023-04-15T02:39:38.482Z,9.20
2023-04-15T02:42:06.342Z,8.40
2023-04-15T02:44:34.283Z,8.50
2023-04-15T02:47:01.256Z,8.63
2023-04-15T02:49:30.037Z,8.40
2023-04-15T02:51:58.476Z,8.70
2023-04-15T02:54:25.924Z,8.20
2023-04-15T02:56:55.550Z,9.03
2023-04-15T02:59:22.514Z,9.57
2023-04-15T03:01:49.683Z,8.83
2023-04-15T03:04:17.011Z,8.90
2023-04-15T03:06:44.205Z,9.20
2023-04-15T03:09:11.282Z,8.73
2023-04-15T03:11:40.955Z,9.37
2023-04-15T03:14:07.942Z,8.93
2023-04-15T03:16:34.768Z,8.97
2023-04-15T03:19:02.013Z,9.50
2023-04-15T03:21:29.046Z,8.70
2023-04-15T03:23:56.769Z,9.10
2023-04-15T03:26:31.881Z,8.67
2023-04-15T03:28:59.401Z,9.90
2023-04-15T03:31:26.769Z,9.93
2023-04-15T03:33:53.723Z,10.10
2023-04-15T03:36:23.270Z,9.50
2023-04-15T03:38:50.467Z,10.57
2023-04-15T03:41:17.732Z,9.80
2023-04-15T03:43:44.636Z,10.90
2023-04-15T03:46:11.623Z,10.87
2023-04-15T03:48:38.613Z,10.93
2023-04-15T03:51:05.610Z,10.20
2023-04-15T03:53:32.409Z,10.20
2023-04-15T03:55:59.309Z,10.50
2023-04-15T03:58:26.225Z,10.73
2023-04-15T04:00:53.378Z,10.77
2023-04-15T04:03:20.653Z,10.27
2023-04-15T04:05:47.820Z,11.37
2023-04-15T04:08:16.520Z,12.17
2023-04-15T04:10:44.606Z,12.53
2023-04-15T04:13:11.743Z,14.43
2023-04-15T04:15:38.663Z,13.50
2023-04-15T04:18:05.623Z,13.97
2023-04-15T04:20:32.673Z,13.37
2023-04-15T04:22:59.549Z,13.53
2023-04-15T04:25:26.523Z,14.60
2023-04-15T04:27:53.662Z,13.97
2023-04-15T04:30:20.809Z,14.80
2023-04-15T04:32:50.249Z,15.60
2023-04-15T04:35:18.312Z,16.13
2023-04-15T04:37:45.188Z,16.40
2023-04-15T04:40:12.619Z,16.57
2023-04-15T04:42:40.109Z,16.87
2023-04-15T04:45:07.730Z,16.60
2023-04-15T04:47:34.716Z,17.27
2023-04-15T04:50:01.676Z,16.90
2023-04-15T04:52:29.915Z,17.13
2023-04-15T04:54:56.922Z,17.90
2023-04-15T04:57:23.807Z,17.70
2023-04-15T04:59:50.552Z,18.07
2023-04-15T05:02:17.556Z,18.23
2023-04-15T05:04:44.459Z,18.03
2023-04-15T05:07:11.681Z,19.07
2023-04-15T05:09:38.956Z,18.97
2023-04-15T05:12:06.242Z,19.07
2023-04-15T05:14:33.513Z,18.87
2023-04-15T05:17:01.933Z,19.67
2023-04-15T05:19:32.008Z,21.27
2023-04-15T05:21:58.847Z,20.07
2023-04-15T05:24:25.693Z,21.53
2023-04-15T05:26:52.737Z,21.53
2023-04-15T05:29:19.691Z,22.27
2023-04-15T05:31:46.971Z,23.30
2023-04-15T05:34:16.082Z,23.83
2023-04-15T05:36:43.280Z,24.03
2023-04-15T05:39:10.155Z,23.73
2023-04-15T05:41:37.005Z,22.50
2023-04-15T05:44:03.885Z,23.83
2023-04-15T05:46:31.082Z,22.77
2023-04-15T05:49:01.304Z,23.63
2023-04-15T05:51:28.714Z,25.43
2023-04-15T05:53:55.927Z,25.17
2023-04-15T05:56:22.791Z,24.73
2023-04-15T05:58:50.522Z,24.47
2023-04-15T06:01:18.291Z,24.67
2023-04-15T06:03:45.341Z,23.53
2023-04-15T06:06:12.346Z,24.33
2023-04-15T06:08:39.234Z,22.67
2023-04-15T06:11:06.218Z,25.03
2023-04-15T06:13:33.233Z,25.13
2023-04-15T06:16:00.435Z,25.43
2023-04-15T06:18:27.370Z,24.97
2023-04-15T06:20:54.186Z,24.50
2023-04-15T06:23:21.678Z,25.07
2023-04-15T06:25:51.801Z,25.60
2023-04-15T06:28:18.671Z,27.60
2023-04-15T06:30:45.607Z,26.10
2023-04-15T06:33:12.770Z,26.20
2023-04-15T06:35:39.716Z,27.77
2023-04-15T06:38:06.699Z,26.37
2023-04-15T06:40:34.122Z,29.23
2023-04-15T06:43:01.148Z,30.47
2023-04-15T06:45:28.181Z,27.93
2023-04-15T06:47:55.050Z,31.23
2023-04-15T06:50:22.097Z,27.73
2023-04-15T06:52:49.241Z,30.53
2023-04-15T06:55:16.389Z,28.87
2023-04-15T06:57:43.312Z,29.17
2023-04-15T07:00:12.336Z,30.17
2023-04-15T07:02:39.506Z,28.00
2023-04-15T07:05:07.615Z,29.23
2023-04-15T07:07:34.505Z,29.20
2023-04-15T07:10:02.326Z,28.90
2023-04-15T07:12:29.327Z,29.40
2023-04-15T07:14:56.579Z,30.17
2023-04-15T07:17:23.288Z,31.67
2023-04-15T07:19:50.075Z,30.00
2023-04-15T07:22:17.025Z,31.37
2023-04-15T07:24:44.135Z,28.90
2023-04-15T07:27:11.116Z,32.27
2023-04-15T07:29:38.152Z,32.63
2023-04-15T07:32:05.439Z,31.53
2023-04-15T07:34:32.682Z,33.07
2023-04-15T07:36:59.686Z,33.07
2023-04-15T07:39:26.838Z,33.00
2023-04-15T07:41:53.663Z,33.77
2023-04-15T07:44:20.723Z,34.23
2023-04-15T07:46:48.378Z,35.10
2023-04-15T07:49:16.973Z,34.30
2023-04-15T07:51:44.678Z,36.47
2023-04-15T07:54:11.945Z,35.30
2023-04-15T07:56:38.975Z,36.53
2023-04-15T07:59:06.744Z,36.53
2023-04-15T08:01:33.910Z,36.03
2023-04-15T08:04:01.055Z,39.10
2023-04-15T08:06:28.017Z,35.57
2023-04-15T08:08:55.500Z,36.60
2023-04-15T08:11:23.589Z,37.43
2023-04-15T08:13:50.606Z,36.67
2023-04-15T08:16:23.082Z,39.60
2023-04-15T08:18:51.786Z,38.83
2023-04-15T08:21:20.547Z,37.33
2023-04-15T08:23:50.410Z,37.83
2023-04-15T08:26:18.078Z,36.23
2023-04-15T08:28:46.825Z,37.70
2023-04-15T08:31:15.848Z,36.10
2023-04-15T08:33:43.306Z,37.53
2023-04-15T08:36:10.758Z,37.97
2023-04-15T08:38:37.928Z,38.20
2023-04-15T08:41:13.026Z,38.70
2023-04-15T08:43:51.992Z,37.43
2023-04-15T08:46:19.905Z,38.10
2023-04-15T08:48:48.312Z,38.80
2023-04-15T08:51:16.598Z,37.67
2023-04-15T08:53:45.158Z,39.23
2023-04-15T08:56:14.487Z,36.97
2023-04-15T08:58:41.938Z,38.83
2023-04-15T09:01:08.969Z,37.47
2023-04-15T09:03:37.113Z,38.13
2023-04-15T09:06:06.177Z,38.37
2023-04-15T09:08:35.197Z,38.63
2023-04-15T09:11:05.831Z,38.03
2023-04-15T09:13:32.704Z,39.20
2023-04-15T09:16:04.155Z,37.30
2023-04-15T09:18:34.063Z,36.40
2023-04-15T09:21:09.288Z,37.10
2023-04-15T09:23:37.367Z,38.83
2023-04-15T09:26:05.410Z,37.00
2023-04-15T09:28:32.417Z,35.13
2023-04-15T09:31:00.635Z,37.70
2023-04-15T09:33:29.382Z,37.00
2023-04-15T09:36:04.809Z,33.43
2023-04-15T09:38:32.675Z,33.57
2023-04-15T09:41:00.259Z,33.63
2023-04-15T09:43:40.915Z,33.57
2023-04-15T09:46:07.992Z,33.20
2023-04-15T09:48:34.786Z,33.80
2023-04-15T09:51:02.407Z,34.27
2023-04-15T09:53:31.768Z,33.10
2023-04-15T09:56:03.433Z,34.70
2023-04-15T09:58:33.856Z,33.77
2023-04-15T10:01:03.351Z,32.00
2023-04-15T10:03:32.575Z,32.07
2023-04-15T10:06:01.070Z,31.97
2023-04-15T10:08:30.305Z,30.77
2023-04-15T10:10:58.004Z,30.07
2023-04-15T10:13:33.079Z,31.43
2023-04-15T10:16:12.121Z,28.87
2023-04-15T10:18:44.310Z,30.40
2023-04-15T10:21:14.203Z,29.13
2023-04-15T10:23:44.662Z,28.60
2023-04-15T10:26:13.032Z,27.03
2023-04-15T10:28:40.161Z,26.63
2023-04-15T10:31:07.916Z,26.23
2023-04-15T10:33:36.017Z,27.47
2023-04-15T10:36:03.246Z,26.60
2023-04-15T10:38:36.098Z,26.17
2023-04-15T10:41:34.892Z,24.70
2023-04-15T10:44:04.942Z,25.20
2023-04-15T10:46:39.501Z,25.07
2023-04-15T10:49:14.150Z,25.97
2023-04-15T10:51:43.409Z,25.87
2023-04-15T10:54:30.509Z,25.60
2023-04-15T10:57:06.861Z,23.77
2023-04-15T10:59:37.344Z,22.80
2023-04-15T11:02:06.926Z,23.73
2023-04-15T11:04:52.241Z,24.37
2023-04-15T11:07:47.416Z,21.63
2023-04-15T11:10:14.403Z,23.93
2023-04-15T11:12:42.213Z,22.53
2023-04-15T11:15:36.623Z,24.00
2023-04-15T11:18:20.306Z,21.10
2023-04-15T11:20:50.750Z,20.83
2023-04-15T11:23:32.326Z,18.90
2023-04-15T11:26:01.123Z,18.73
2023-04-15T11:28:29.616Z,17.37
2023-04-15T11:30:57.103Z,17.67
2023-04-15T11:33:24.848Z,17.13
2023-04-15T11:35:55.027Z,17.80
2023-04-15T11:38:22.693Z,18.47
2023-04-15T11:40:51.533Z,16.47
2023-04-15T11:43:23.581Z,18.10
2023-04-15T11:45:58.405Z,16.57
2023-04-15T11:48:30.986Z,16.93
2023-04-15T11:51:07.944Z,16.20
2023-04-15T11:53:43.658Z,16.63
2023-04-15T11:56:21.315Z,15.47
2023-04-15T11:58:51.075Z,14.57
2023-04-15T12:01:18.879Z,15.97
2023-04-15T12:03:49.934Z,15.70
2023-04-15T12:06:19.727Z,15.97
2023-04-15T12:08:56.793Z,16.13
2023-04-15T12:11:26.700Z,16.50
2023-04-15T12:14:06.137Z,16.43
2023-04-15T12:16:48.403Z,16.40
2023-04-15T12:19:30.238Z,15.00
2023-04-15T12:22:04.335Z,12.93
2023-04-15T12:24:36.060Z,12.23
2023-04-15T12:27:10.050Z,11.23
2023-04-15T12:29:39.012Z,10.33
2023-04-15T12:32:08.553Z,10.17
2023-04-15T12:34:37.611Z,10.80
2023-04-15T12:37:06.545Z,9.93
2023-04-15T12:39:36.776Z,10.23
2023-04-15T12:42:04.741Z,10.60
2023-04-15T12:44:32.005Z,8.87
2023-04-15T12:47:00.240Z,9.23
2023-04-15T12:49:28.069Z,8.60
2023-04-15T12:51:57.420Z,9.10
2023-04-15T12:54:24.480Z,8.50
2023-04-15T12:56:51.858Z,8.47
2023-04-15T12:59:18.872Z,8.90
2023-04-15T13:01:47.754Z,7.90
2023-04-15T13:04:16.591Z,7.93
2023-04-15T13:06:44.371Z,8.30
2023-04-15T13:09:11.291Z,7.60
2023-04-15T13:11:38.223Z,7.67
2023-04-15T13:14:07.465Z,7.97
2023-04-15T13:16:35.224Z,8.33
2023-04-15T13:19:03.851Z,8.80
2023-04-15T13:21:32.381Z,9.00
2023-04-15T13:23:59.916Z,8.03
2023-04-15T13:26:26.821Z,9.07
2023-04-15T13:28:53.972Z,8.73
2023-04-15T13:31:21.318Z,8.77
2023-04-15T13:33:48.219Z,9.53
2023-04-15T13:36:15.044Z,8.33
2023-04-15T13:38:41.993Z,9.10
2023-04-15T13:41:08.750Z,9.10
2023-04-15T13:43:36.069Z,9.87
2023-04-15T13:46:02.972Z,9.30
2023-04-15T13:48:29.872Z,9.27
2023-04-15T13:50:56.794Z,9.17
2023-04-15T13:53:33.838Z,8.67
2023-04-15T13:56:09.266Z,8.77
2023-04-15T13:58:36.954Z,8.93
2023-04-15T14:01:05.746Z,8.70
2023-04-15T14:03:34.029Z,8.73
2023-04-15T14:06:01.318Z,9.00
2023-04-15T14:08:28.232Z,8.83
2023-04-15T14:10:55.107Z,8.53
2023-04-15T14:13:22.088Z,8.23
2023-04-15T14:15:49.016Z,8.50
2023-04-15T14:18:15.903Z,8.93
2023-04-15T14:20:42.949Z,9.00
2023-04-15T14:23:10.108Z,8.77
2023-04-15T14:25:39.411Z,7.67
2023-04-15T14:28:06.488Z,8.10
2023-04-15T14:30:33.578Z,8.43
2023-04-15T14:33:00.662Z,9.23
2023-04-15T14:35:27.967Z,8.67
2023-04-15T14:37:55.554Z,9.40
2023-04-15T14:40:23.025Z,9.07
2023-04-15T14:42:50.003Z,9.77
2023-04-15T14:45:17.940Z,9.37
2023-04-15T14:47:45.323Z,9.97
2023-04-15T14:50:12.506Z,9.47
2023-04-15T14:52:39.672Z,9.60
2023-04-15T14:55:12.434Z,9.40
2023-04-15T14:57:40.885Z,9.37
2023-04-15T15:00:10.126Z,9.40
2023-04-15T15:02:40.300Z,10.00
2023-04-15T15:05:08.742Z,12.70
2023-04-15T15:07:37.453Z,13.23
2023-04-15T15:10:05.551Z,13.80
2023-04-15T15:12:33.304Z,13.93
2023-04-15T15:15:01.622Z,13.47
2023-04-15T15:17:30.174Z,13.67
2023-04-15T15:19:57.616Z,13.57
2023-04-15T15:22:26.008Z,13.37
2023-04-15T15:24:53.699Z,13.07
2023-04-15T15:27:20.844Z,12.97
2023-04-15T15:29:47.917Z,13.17
2023-04-15T15:32:14.821Z,13.13
2023-04-15T15:34:41.713Z,12.33
2023-04-15T15:37:08.645Z,12.97
2023-04-15T15:39:36.092Z,12.87
2023-04-15T15:42:03.166Z,12.53
2023-04-15T15:44:30.029Z,12.80
2023-04-15T15:46:57.025Z,12.53
2023-04-15T15:49:25.604Z,12.33
2023-04-15T15:51:52.688Z,11.20
2023-04-15T15:54:19.565Z,12.53
2023-04-15T15:56:46.550Z,13.10
2023-04-15T15:59:13.485Z,13.97
2023-04-15T16:01:40.603Z,14.40
2023-04-15T16:04:07.969Z,15.30
2023-04-15T16:06:35.368Z,15.30
2023-04-15T16:09:02.946Z,15.23
2023-04-15T16:11:30.494Z,14.90
2023-04-15T16:13:57.479Z,15.27
2023-04-15T16:16:24.643Z,14.23
2023-04-15T16:18:51.699Z,14.50
2023-04-15T16:21:19.785Z,15.27
2023-04-15T16:23:46.785Z,15.07
2023-04-15T16:26:13.764Z,14.83
2023-04-15T16:28:40.851Z,14.20
2023-04-15T16:31:07.863Z,15.27
2023-04-15T16:33:34.952Z,14.50
2023-04-15T16:36:01.969Z,14.47
2023-04-15T16:38:28.807Z,14.53
2023-04-15T16:40:59.964Z,14.97
2023-04-15T16:43:27.297Z,13.90
2023-04-15T16:45:54.461Z,13.87
2023-04-15T16:48:21.651Z,14.47
2023-04-15T16:50:49.473Z,13.40
2023-04-15T16:53:16.650Z,15.13
2023-04-15T16:55:43.755Z,15.87
2023-04-15T16:58:10.563Z,14.97
2023-04-15T17:00:37.646Z,14.90
2023-04-15T17:03:06.085Z,15.33
2023-04-15T17:05:33.433Z,16.60
2023-04-15T17:08:00.433Z,16.07
2023-04-15T17:10:28.007Z,14.87
2023-04-15T17:12:58.394Z,16.40
2023-04-15T17:15:26.333Z,15.47
2023-04-15T17:17:53.399Z,15.50
2023-04-15T17:20:20.483Z,14.70
2023-04-15T17:22:48.315Z,14.83
2023-04-15T17:25:15.402Z,14.53
2023-04-15T17:27:42.484Z,14.83
2023-04-15T17:30:09.900Z,15.17
2023-04-15T17:32:37.519Z,14.93
2023-04-15T17:35:06.653Z,15.23
2023-04-15T17:37:34.514Z,16.07
2023-04-15T17:40:01.621Z,16.20
2023-04-15T17:42:28.910Z,16.03
2023-04-15T17:44:55.836Z,15.40
2023-04-15T17:47:22.697Z,15.73
2023-04-15T17:49:49.665Z,15.63
2023-04-15T17:52:16.678Z,15.67
2023-04-15T17:54:43.667Z,15.23
2023-04-15T17:57:10.879Z,15.53
2023-04-15T17:59:37.693Z,16.17
2023-04-15T18:02:04.586Z,16.47
2023-04-15T18:04:31.945Z,15.73
2023-04-15T18:06:58.954Z,15.77
2023-04-15T18:09:25.988Z,15.70
2023-04-15T18:11:53.027Z,15.70
2023-04-15T18:14:31.104Z,17.10
2023-04-15T18:17:00.833Z,17.10
2023-04-15T18:19:30.549Z,16.50
2023-04-15T18:22:00.758Z,15.77
2023-04-15T18:24:28.340Z,15.43
2023-04-15T18:26:56.770Z,17.10
2023-04-15T18:29:23.864Z,16.03
2023-04-15T18:31:51.362Z,16.87
2023-04-15T18:34:18.567Z,17.10
2023-04-15T18:36:46.516Z,16.20
2023-04-15T18:39:13.680Z,16.20
2023-04-15T18:41:40.728Z,16.37
2023-04-15T18:44:07.648Z,18.07
2023-04-15T18:46:34.517Z,18.00
2023-04-15T18:49:01.618Z,16.47
2023-04-15T18:51:28.682Z,17.43
2023-04-15T18:53:55.940Z,18.57
2023-04-15T18:56:23.014Z,17.63
2023-04-15T18:59:27.476Z,17.57
2023-04-15T19:01:36.973Z,17.97
2023-04-15T19:04:04.038Z,16.27
2023-04-15T19:06:31.312Z,17.30
2023-04-15T19:08:59.551Z,18.90
2023-04-15T19:11:26.631Z,17.30
2023-04-15T19:13:53.786Z,17.80
2023-04-15T19:16:21.300Z,18.03
2023-04-15T19:18:48.297Z,17.30
2023-04-15T19:21:16.071Z,18.33
2023-04-15T19:23:43.469Z,18.60
2023-04-15T19:26:12.004Z,17.80
2023-04-15T19:28:39.461Z,17.47
2023-04-15T19:31:06.900Z,17.33
2023-04-15T19:33:34.386Z,18.20
2023-04-15T19:36:04.385Z,17.80
2023-04-15T19:38:35.255Z,16.83
2023-04-15T19:41:02.319Z,17.17
2023-04-15T19:43:30.378Z,17.77
2023-04-15T19:45:57.203Z,17.50
2023-04-15T19:48:25.186Z,18.13
2023-04-15T19:50:52.212Z,18.07
2023-04-15T19:53:19.193Z,19.23
2023-04-15T19:55:47.527Z,18.70
2023-04-15T19:58:14.667Z,18.87
2023-04-15T20:00:41.657Z,19.20
2023-04-15T20:03:08.628Z,19.70
2023-04-15T20:05:35.928Z,18.87
2023-04-15T20:08:03.436Z,18.70
2023-04-15T20:10:31.943Z,18.07
2023-04-15T20:12:59.302Z,19.43
2023-04-15T20:15:26.727Z,17.90
2023-04-15T20:17:53.833Z,17.90
2023-04-15T20:20:21.091Z,18.53
2023-04-15T20:22:48.611Z,18.33
2023-04-15T20:25:15.506Z,17.50
2023-04-15T20:27:42.552Z,17.43
2023-04-15T20:30:09.813Z,17.90
2023-04-15T20:32:37.071Z,16.63
2023-04-15T20:35:05.370Z,17.50
2023-04-15T20:37:33.810Z,16.80
2023-04-15T20:40:01.550Z,18.13
2023-04-15T20:42:32.193Z,16.80
2023-04-15T20:44:58.999Z,17.60
2023-04-15T20:47:26.376Z,17.67
2023-04-15T20:49:54.227Z,18.53
2023-04-15T20:52:21.428Z,17.77
2023-04-15T20:54:48.302Z,18.33
2023-04-15T20:57:15.301Z,16.97
2023-04-15T20:59:42.137Z,17.70
2023-04-15T21:02:09.253Z,17.93
2023-04-15T21:04:38.246Z,18.90
2023-04-15T21:07:05.322Z,17.80
2023-04-15T21:09:32.380Z,18.77
2023-04-15T21:12:01.907Z,18.37
2023-04-15T21:14:29.829Z,17.83
2023-04-15T21:16:58.275Z,18.53
2023-04-15T21:19:25.485Z,18.50
2023-04-15T21:21:52.392Z,18.10
2023-04-15T21:24:19.318Z,18.80
2023-04-15T21:26:46.071Z,18.93
2023-04-15T21:29:13.230Z,18.67
2023-04-15T21:31:41.042Z,19.10
2023-04-15T21:34:08.519Z,18.57
2023-04-15T21:36:36.180Z,20.27
2023-04-15T21:39:03.816Z,19.80
2023-04-15T21:41:31.323Z,18.70
2023-04-15T21:43:58.434Z,19.13
2023-04-15T21:46:32.864Z,18.47
2023-04-15T21:49:02.547Z,19.23
2023-04-15T21:51:29.461Z,18.33
2023-04-15T21:53:56.855Z,19.13
2023-04-15T21:56:24.888Z,19.87
2023-04-15T21:58:57.201Z,20.97
2023-04-15T22:01:24.773Z,18.73
2023-04-15T22:03:52.553Z,19.47
2023-04-15T22:06:19.864Z,19.80
2023-04-15T22:08:56.158Z,19.67
2023-04-15T22:11:30.636Z,19.57
2023-04-15T22:13:58.912Z,19.13
2023-04-15T22:16:26.554Z,19.37
2023-04-15T22:18:53.828Z,19.73
2023-04-15T22:21:20.947Z,20.30
2023-04-15T22:23:50.143Z,19.13
2023-04-15T22:26:17.248Z,21.03
2023-04-15T22:28:44.253Z,20.43
2023-04-15T22:31:11.590Z,19.13
2023-04-15T22:33:39.202Z,20.73
2023-04-15T22:36:06.531Z,19.57
2023-04-15T22:38:33.570Z,19.37
2023-04-15T22:41:00.843Z,20.10
2023-04-15T22:43:27.955Z,18.97
2023-04-15T22:45:55.329Z,19.87
2023-04-15T22:48:22.878Z,19.77
2023-04-15T22:50:50.162Z,20.63
2023-04-15T22:53:17.984Z,19.17
2023-04-15T22:55:47.248Z,19.60
2023-04-15T22:58:15.186Z,19.30
2023-04-15T23:00:42.470Z,19.63
2023-04-15T23:03:09.710Z,19.47
2023-04-15T23:05:37.077Z,20.10
2023-04-15T23:08:03.997Z,19.93
2023-04-15T23:10:30.881Z,19.90
2023-04-15T23:12:57.903Z,21.30
2023-04-15T23:15:24.993Z,20.87
2023-04-15T23:17:52.126Z,20.27
2023-04-15T23:20:19.411Z,20.63
2023-04-15T23:22:46.492Z,20.57
2023-04-15T23:25:13.666Z,20.10
2023-04-15T23:27:40.552Z,20.73
2023-04-15T23:30:08.079Z,22.83
2023-04-15T23:32:35.243Z,22.37
2023-04-15T23:35:02.298Z,22.40
2023-04-15T23:37:31.839Z,22.70
2023-04-15T23:39:58.684Z,22.47
2023-04-15T23:42:26.217Z,22.73
2023-04-15T23:44:53.228Z,23.37
2023-04-15T23:47:20.032Z,23.47
2023-04-15T23:49:47.318Z,23.43
2023-04-15T23:52:14.191Z,23.87
2023-04-15T23:54:41.312Z,23.20
2023-04-15T23:57:08.402Z,23.90
2023-04-15T23:59:35.195Z,22.90
